Cobb, California
Current Conditions -  °F | °C
As of 7:53 PM on Saturday 25 Oct 2014 (Local Time) from KSTS Reporting Station
Scattered Clouds Scattered Clouds  
Wind Chill: 57°   Ceiling: Unl
Heat Index: 57°   Visibility: 10mi
Dew Point: 55°   Wind: 5mph
Humidity: 93%   Direction: 160°SSE
Pressure: 30.06"   Gusts: NA
Location:  38.84°N, 122.73°W
Report Text: KSTS 260253Z AUTO 16004KT 10SM SCT030 14/13 A3006 RMK AO2 SLP172 T01390128 53010
Loading
Personal Weather Stations






























Interactive Weather Map
Tropical Storm Tracking
New forecast layout! Learn more

10-Day Weather Forecast

Advertisements
Track Severe Weather on mobile